Time;durP1;ratioP1;P1;durP2;ratioP2;P2;SDS_P1;SDS_P2;PMS_P1;PMS_P2;Temp;Humidity;BMP_temperature;BMP_pressure;BME280_temperature;BME280_humidity;BME280_pressure;Samples;Min_cycle;Max_cycle;Signal;HPM_P1;HPM_P2
2021/05/22 00:00:22;;;;;;;4.00;1.15;;;14.80;90.10;;;;;;5050662;28;20021;-87
2021/05/22 00:02:48;;;;;;;3.75;1.30;;;14.80;90.20;;;;;;5050989;28;20025;-87
2021/05/22 00:05:14;;;;;;;2.92;1.25;;;14.70;90.40;;;;;;5048687;28;20529;-88
2021/05/22 00:07:39;;;;;;;5.38;1.33;;;14.60;90.80;;;;;;5049343;28;20040;-87
2021/05/22 00:10:10;;;;;;;3.33;1.35;;;14.60;91.70;;;;;;5031206;28;20033;-88
2021/05/22 00:12:37;;;;;;;2.75;1.17;;;14.50;92.20;;;;;;5049324;28;20037;-88
2021/05/22 00:15:06;;;;;;;4.50;1.10;;;14.40;92.40;;;;;;5048806;28;20021;-87
2021/05/22 00:17:32;;;;;;;3.42;1.30;;;14.40;93.20;;;;;;5048455;28;20420;-87
2021/05/22 00:19:58;;;;;;;3.40;1.40;;;14.40;93.50;;;;;;5048940;28;20033;-86
2021/05/22 00:22:23;;;;;;;3.25;1.70;;;14.40;93.30;;;;;;5047250;28;20055;-87
2021/05/22 00:24:49;;;;;;;4.53;1.50;;;14.40;93.30;;;;;;5049154;28;20052;-87
2021/05/22 00:27:14;;;;;;;2.90;1.20;;;14.20;93.80;;;;;;5050211;28;20029;-87
2021/05/22 00:29:40;;;;;;;5.50;1.83;;;14.10;94.10;;;;;;5032128;28;20021;-88
2021/05/22 00:32:06;;;;;;;4.70;1.52;;;14.10;94.30;;;;;;5047114;28;20044;-88
2021/05/22 00:34:31;;;;;;;3.05;1.40;;;14.10;94.40;;;;;;5049290;28;20491;-87
2021/05/22 00:36:57;;;;;;;6.45;1.73;;;14.10;94.50;;;;;;5030210;28;20204;-89
2021/05/22 00:39:23;;;;;;;3.00;1.23;;;14.20;94.50;;;;;;5051739;28;20025;-87
2021/05/22 00:41:48;;;;;;;4.20;2.08;;;14.10;95.00;;;;;;5050724;28;20033;-88
2021/05/22 00:44:14;;;;;;;2.80;1.48;;;14.10;95.10;;;;;;5030934;28;20103;-88
2021/05/22 00:46:40;;;;;;;3.38;1.33;;;14.10;94.90;;;;;;5047806;28;20562;-86
2021/05/22 00:49:05;;;;;;;4.22;1.38;;;14.00;95.10;;;;;;5047291;28;20591;-86
2021/05/22 00:51:31;;;;;;;4.78;2.17;;;13.90;95.00;;;;;;5047155;28;20401;-87
2021/05/22 00:53:57;;;;;;;4.40;2.13;;;13.90;94.60;;;;;;5050373;28;20037;-86
2021/05/22 00:56:22;;;;;;;4.07;1.75;;;13.90;94.80;;;;;;5046234;28;20064;-86
2021/05/22 00:58:48;;;;;;;4.00;1.48;;;13.90;94.90;;;;;;5031090;28;20024;-87
2021/05/22 01:01:14;;;;;;;2.42;1.60;;;13.80;94.90;;;;;;5046124;28;20496;-87
2021/05/22 01:03:45;;;;;;;5.30;1.38;;;13.80;95.10;;;;;;5046691;28;20586;-89
2021/05/22 01:06:23;;;;;;;3.97;1.83;;;13.70;95.30;;;;;;5046257;28;20098;-88
2021/05/22 01:08:56;;;;;;;6.10;1.77;;;13.80;94.80;;;;;;5030463;28;20374;-87
2021/05/22 01:11:22;;;;;;;3.63;2.10;;;13.80;95.00;;;;;;5048346;28;20477;-86
2021/05/22 01:14:12;;;;;;;5.30;1.98;;;13.70;95.10;;;;;;5029409;28;20098;-88
2021/05/22 01:16:41;;;;;;;3.55;1.98;;;13.70;94.80;;;;;;5046249;28;20072;-87
2021/05/22 01:19:08;;;;;;;7.00;2.35;;;13.70;94.70;;;;;;5048004;28;20484;-88
2021/05/22 01:21:38;;;;;;;4.35;2.67;;;13.70;94.80;;;;;;5047485;28;20017;-88
2021/05/22 01:24:09;;;;;;;3.78;2.30;;;13.60;94.90;;;;;;5047316;28;20155;-88
2021/05/22 01:26:35;;;;;;;;;;;13.60;95.10;;;;;;5048865;28;20116;-88
2021/05/22 01:29:02;;;;;;;6.60;2.38;;;13.50;95.20;;;;;;5047283;28;19908;-88
2021/05/22 01:31:27;;;;;;;6.32;2.15;;;13.50;95.50;;;;;;5047335;28;20560;-88
2021/05/22 01:33:53;;;;;;;5.22;2.05;;;13.50;95.00;;;;;;5044868;28;20129;-87
2021/05/22 01:36:19;;;;;;;3.60;1.83;;;13.50;94.90;;;;;;5045743;28;20084;-87
2021/05/22 01:38:44;;;;;;;4.75;2.33;;;13.50;95.00;;;;;;5046893;28;20120;-88
2021/05/22 01:41:10;;;;;;;3.97;2.05;;;13.50;94.80;;;;;;5046916;28;20021;-86
2021/05/22 01:43:40;;;;;;;3.63;1.73;;;13.40;94.80;;;;;;5046950;28;20029;-86
2021/05/22 01:46:08;;;;;;;5.53;2.30;;;13.40;94.60;;;;;;5048109;28;20071;-87
2021/05/22 01:48:34;;;;;;;4.53;1.58;;;13.40;94.30;;;;;;5046232;28;20061;-88
2021/05/22 01:51:06;;;;;;;2.55;1.40;;;13.30;94.30;;;;;;5045977;28;20059;-87
2021/05/22 01:53:33;;;;;;;4.03;1.50;;;13.30;94.20;;;;;;5048579;28;20024;-87
2021/05/22 01:55:59;;;;;;;3.13;1.70;;;13.30;94.20;;;;;;5047770;28;20025;-88
2021/05/22 01:58:25;;;;;;;6.38;1.55;;;13.30;94.60;;;;;;5047398;28;20495;-89
2021/05/22 02:00:51;;;;;;;3.25;1.40;;;13.30;94.50;;;;;;5030399;28;20417;-87
2021/05/22 02:03:41;;;;;;;3.25;1.98;;;13.30;94.30;;;;;;5044622;28;20037;-87
2021/05/22 02:06:33;;;;;;;2.50;1.13;;;13.20;94.30;;;;;;5047172;28;20028;-87
2021/05/22 02:09:01;;;;;;;4.10;1.63;;;13.20;94.50;;;;;;5044112;28;20041;-89
2021/05/22 02:11:31;;;;;;;5.20;1.50;;;13.20;94.60;;;;;;5046870;28;20733;-87
2021/05/22 02:14:00;;;;;;;3.58;1.45;;;13.10;94.60;;;;;;5045229;28;20029;-86
2021/05/22 02:16:28;;;;;;;3.72;1.73;;;13.10;94.50;;;;;;5046786;28;20049;-88
2021/05/22 02:18:55;;;;;;;2.70;1.20;;;13.10;94.30;;;;;;5045761;28;20583;-87
2021/05/22 02:21:27;;;;;;;4.07;1.30;;;13.10;94.40;;;;;;5027518;28;20032;-87
2021/05/22 02:23:53;;;;;;;3.00;1.35;;;13.00;94.50;;;;;;5046170;28;20035;-86
2021/05/22 02:26:25;;;;;;;3.42;1.48;;;13.00;94.40;;;;;;5045903;28;20025;-89
2021/05/22 02:28:51;;;;;;;4.30;2.05;;;13.00;94.50;;;;;;5026750;28;20097;-88
2021/05/22 02:31:18;;;;;;;4.35;1.20;;;13.00;94.80;;;;;;5045667;28;20117;-88
2021/05/22 02:33:45;;;;;;;1.75;1.13;;;13.00;94.30;;;;;;5041946;28;20029;-87
2021/05/22 02:36:12;;;;;;;4.80;1.30;;;13.00;94.50;;;;;;5043495;28;20465;-89
2021/05/22 02:38:49;;;;;;;6.78;1.55;;;13.00;94.50;;;;;;5025169;28;20029;-86
2021/05/22 02:41:15;;;;;;;4.50;2.03;;;13.00;94.60;;;;;;5025741;28;20025;-87
2021/05/22 02:43:49;;;;;;;3.22;1.48;;;13.00;94.60;;;;;;5044048;28;20032;-87
2021/05/22 02:46:17;;;;;;;4.45;1.92;;;13.00;94.70;;;;;;5045253;28;20021;-87
2021/05/22 02:48:43;;;;;;;4.45;1.27;;;13.00;94.60;;;;;;5043740;28;20021;-87
2021/05/22 02:51:12;;;;;;;6.93;1.50;;;13.00;94.60;;;;;;5044840;28;20794;-88
2021/05/22 02:53:39;;;;;;;3.63;1.30;;;13.10;94.60;;;;;;5046690;28;20495;-87
2021/05/22 02:56:07;;;;;;;5.75;1.60;;;13.10;94.60;;;;;;5045376;28;20123;-87
2021/05/22 02:58:40;;;;;;;2.47;1.30;;;13.10;94.40;;;;;;5048134;28;20071;-86
2021/05/22 03:01:06;;;;;;;5.53;1.70;;;13.20;94.60;;;;;;5049726;28;20060;-88
2021/05/22 03:03:35;;;;;;;4.03;1.70;;;13.10;94.60;;;;;;5029648;28;20540;-88
2021/05/22 03:06:02;;;;;;;4.25;1.90;;;13.20;94.60;;;;;;5041732;28;20072;-88
2021/05/22 03:08:28;;;;;;;4.22;1.65;;;13.20;94.50;;;;;;5032047;28;20056;-85
2021/05/22 03:10:57;;;;;;;3.28;1.63;;;13.20;94.60;;;;;;5047842;28;20048;-86
2021/05/22 03:13:23;;;;;;;3.35;1.55;;;13.20;94.70;;;;;;5047791;28;20029;-87
2021/05/22 03:15:49;;;;;;;5.22;2.15;;;13.30;94.60;;;;;;5031908;28;20029;-87
2021/05/22 03:18:15;;;;;;;5.05;2.00;;;13.30;94.60;;;;;;5034201;28;20037;-87
2021/05/22 03:20:40;;;;;;;2.95;1.30;;;13.20;94.50;;;;;;5033132;28;20126;-87
2021/05/22 03:23:07;;;;;;;7.93;1.52;;;13.30;94.50;;;;;;5049236;28;20485;-87
2021/05/22 03:25:32;;;;;;;2.85;1.33;;;13.20;94.40;;;;;;5047496;28;20032;-86
2021/05/22 03:27:58;;;;;;;3.90;1.60;;;13.30;94.60;;;;;;5047661;28;20378;-86
2021/05/22 03:30:24;;;;;;;3.15;1.27;;;13.30;94.80;;;;;;5048820;28;20049;-88
2021/05/22 03:32:50;;;;;;;3.95;1.30;;;13.30;94.60;;;;;;5050404;28;20056;-86
2021/05/22 03:35:16;;;;;;;5.28;1.88;;;13.30;94.60;;;;;;5047376;28;20378;-88
2021/05/22 03:37:41;;;;;;;3.08;1.30;;;13.40;94.50;;;;;;5049726;28;20396;-87
2021/05/22 03:40:08;;;;;;;5.57;1.42;;;13.40;94.50;;;;;;5047758;28;20025;-88
2021/05/22 03:42:34;;;;;;;3.38;1.20;;;13.40;94.50;;;;;;5049301;28;20496;-89
2021/05/22 03:45:00;;;;;;;2.67;1.20;;;13.50;94.30;;;;;;5050093;28;20045;-88
2021/05/22 03:47:26;;;;;;;3.20;1.45;;;13.50;94.50;;;;;;5044452;28;20017;-89
2021/05/22 03:49:51;;;;;;;6.50;1.80;;;13.50;94.70;;;;;;5040699;28;20429;-88
2021/05/22 03:52:17;;;;;;;2.90;1.45;;;13.60;94.40;;;;;;5039954;28;20358;-88
2021/05/22 03:54:44;;;;;;;3.20;1.20;;;13.60;94.50;;;;;;5047057;28;20072;-88
2021/05/22 03:57:10;;;;;;;2.80;1.00;;;13.70;94.50;;;;;;5049313;28;20029;-89
2021/05/22 03:59:35;;;;;;;4.40;1.42;;;13.70;94.20;;;;;;5052137;28;20100;-89
2021/05/22 04:02:01;;;;;;;3.42;1.40;;;13.70;94.20;;;;;;5050321;28;20041;-88
2021/05/22 04:04:27;;;;;;;4.20;1.38;;;13.80;94.00;;;;;;5052464;28;20108;-88
2021/05/22 04:06:52;;;;;;;2.90;1.05;;;13.90;93.90;;;;;;5051410;28;20476;-88
2021/05/22 04:09:18;;;;;;;3.53;1.20;;;13.90;94.00;;;;;;5052512;28;20043;-88
2021/05/22 04:11:43;;;;;;;3.63;1.52;;;14.00;93.40;;;;;;5054335;28;20025;-89
2021/05/22 04:14:09;;;;;;;2.13;1.23;;;14.00;93.30;;;;;;5035213;28;20604;-88
2021/05/22 04:16:35;;;;;;;5.22;1.30;;;14.00;93.30;;;;;;5049161;28;20090;-88
2021/05/22 04:19:02;;;;;;;1.75;1.02;;;14.10;93.10;;;;;;5050864;28;20040;-88
2021/05/22 04:21:28;;;;;;;2.22;0.82;;;14.00;93.00;;;;;;5044618;28;20033;-88
2021/05/22 04:23:54;;;;;;;2.20;1.00;;;14.10;93.10;;;;;;5049856;28;20522;-88
2021/05/22 04:26:19;;;;;;;3.65;0.90;;;14.10;93.10;;;;;;5050484;28;20029;-87
2021/05/22 04:28:45;;;;;;;1.88;0.85;;;14.10;93.00;;;;;;5050028;28;20384;-88
2021/05/22 04:31:11;;;;;;;3.92;0.85;;;14.20;93.10;;;;;;5052011;28;20021;-88
2021/05/22 04:33:37;;;;;;;3.90;0.90;;;14.20;93.10;;;;;;5050613;28;20116;-88
2021/05/22 04:36:03;;;;;;;3.85;1.23;;;14.20;92.70;;;;;;5052536;28;20049;-86
2021/05/22 04:38:28;;;;;;;3.30;0.85;;;14.30;92.80;;;;;;5034631;28;20035;-87
2021/05/22 04:40:54;;;;;;;3.80;1.08;;;14.30;92.90;;;;;;5049948;28;20025;-86
2021/05/22 04:43:20;;;;;;;1.33;0.80;;;14.30;92.70;;;;;;5051007;28;20017;-87
2021/05/22 04:45:45;;;;;;;1.73;1.13;;;14.40;92.80;;;;;;5050000;28;20040;-87
2021/05/22 04:48:11;;;;;;;1.95;0.95;;;14.50;92.80;;;;;;5034624;28;20033;-85
2021/05/22 04:50:37;;;;;;;1.95;1.05;;;14.60;92.30;;;;;;5046910;28;20029;-87
2021/05/22 04:53:03;;;;;;;1.10;0.60;;;14.70;92.10;;;;;;5047514;28;20028;-86
2021/05/22 04:55:29;;;;;;;3.83;0.80;;;14.80;92.20;;;;;;5034040;28;20033;-87
2021/05/22 04:57:54;;;;;;;7.95;1.80;;;15.00;91.80;;;;;;5049903;28;20075;-86
2021/05/22 05:00:21;;;;;;;2.65;0.77;;;15.00;92.10;;;;;;5051589;28;20116;-86
2021/05/22 05:02:46;;;;;;;1.65;0.70;;;15.10;91.60;;;;;;5034813;28;20032;-86
2021/05/22 05:05:12;;;;;;;2.45;1.02;;;15.30;91.70;;;;;;5032778;28;20020;-87
2021/05/22 05:07:42;;;;;;;3.42;0.82;;;15.30;91.60;;;;;;5046604;28;20021;-87
2021/05/22 05:10:09;;;;;;;3.55;1.15;;;15.40;91.10;;;;;;5049098;28;20032;-87
2021/05/22 05:12:35;;;;;;;2.40;0.80;;;15.40;91.10;;;;;;5048283;28;20025;-87
2021/05/22 05:15:01;;;;;;;2.17;0.80;;;15.40;91.10;;;;;;5051471;28;20388;-87
2021/05/22 05:17:27;;;;;;;4.55;1.00;;;15.40;90.70;;;;;;5050112;28;20044;-87
2021/05/22 05:19:52;;;;;;;1.83;0.93;;;15.40;90.70;;;;;;5050903;28;20020;-86
2021/05/22 05:22:18;;;;;;;2.75;1.05;;;15.40;90.90;;;;;;5049525;28;20032;-87
2021/05/22 05:24:44;;;;;;;1.90;0.70;;;15.50;90.80;;;;;;5050520;28;20384;-87
2021/05/22 05:27:11;;;;;;;1.80;0.60;;;15.50;90.50;;;;;;5050953;28;20025;-88
2021/05/22 05:29:39;;;;;;;1.88;0.82;;;15.50;90.70;;;;;;5050625;28;20035;-88
2021/05/22 05:32:07;;;;;;;2.63;0.70;;;15.60;90.60;;;;;;5044871;28;20027;-86
2021/05/22 05:34:33;;;;;;;1.77;0.43;;;15.60;90.00;;;;;;5031821;28;20029;-85
2021/05/22 05:36:59;;;;;;;2.33;0.70;;;15.70;90.10;;;;;;5050346;28;20048;-88
2021/05/22 05:39:24;;;;;;;1.58;0.70;;;15.80;89.40;;;;;;5049258;28;20032;-88
2021/05/22 05:41:50;;;;;;;0.50;0.40;;;15.90;89.50;;;;;;5051532;28;20028;-88
2021/05/22 05:44:16;;;;;;;2.08;0.75;;;16.00;89.10;;;;;;5049992;28;20440;-87
2021/05/22 05:46:41;;;;;;;2.55;0.65;;;16.10;89.00;;;;;;5033729;28;20033;-87
2021/05/22 05:49:07;;;;;;;1.67;0.60;;;16.30;87.70;;;;;;5047279;28;20021;-88
2021/05/22 05:51:33;;;;;;;2.50;0.68;;;16.40;88.10;;;;;;5031193;28;20044;-87
2021/05/22 05:53:59;;;;;;;1.55;0.70;;;16.60;87.80;;;;;;5052184;28;20039;-87
2021/05/22 05:56:24;;;;;;;1.17;0.50;;;16.60;86.70;;;;;;5032518;28;20040;-87
2021/05/22 05:58:50;;;;;;;2.65;0.70;;;16.70;86.50;;;;;;5044368;28;20025;-88
2021/05/22 06:01:16;;;;;;;2.40;0.55;;;16.70;87.30;;;;;;5048986;28;20119;-87
2021/05/22 06:03:43;;;;;;;2.15;0.57;;;16.70;87.50;;;;;;5033032;28;20028;-88
2021/05/22 06:06:08;;;;;;;1.45;0.50;;;16.60;87.40;;;;;;5050666;28;20025;-88
2021/05/22 06:08:34;;;;;;;1.95;0.65;;;16.60;88.10;;;;;;5049117;28;20009;-87
2021/05/22 06:11:01;;;;;;;1.70;0.50;;;16.50;87.10;;;;;;5048447;28;20496;-87
2021/05/22 06:13:30;;;;;;;1.75;0.60;;;16.40;86.40;;;;;;5048521;28;20021;-87
2021/05/22 06:16:04;;;;;;;1.42;0.52;;;16.40;87.30;;;;;;5048351;28;20033;-87
2021/05/22 06:18:34;;;;;;;2.38;0.60;;;16.50;88.00;;;;;;5034351;28;20017;-88
2021/05/22 06:21:01;;;;;;;1.23;0.40;;;16.60;87.70;;;;;;5051227;28;20033;-87
2021/05/22 06:23:27;;;;;;;0.88;0.43;;;16.70;86.40;;;;;;5048492;28;20458;-87
2021/05/22 06:25:53;;;;;;;1.90;0.50;;;16.70;85.30;;;;;;5050302;28;20033;-87
2021/05/22 06:28:19;;;;;;;2.00;0.50;;;16.70;86.80;;;;;;5047204;28;20017;-87
2021/05/22 06:30:46;;;;;;;1.88;0.45;;;16.70;87.10;;;;;;5047908;28;20029;-86
2021/05/22 06:33:12;;;;;;;1.45;0.60;;;16.70;86.20;;;;;;5049982;28;20036;-87
2021/05/22 06:35:37;;;;;;;1.95;0.85;;;16.80;86.50;;;;;;5047459;28;20090;-87
2021/05/22 06:38:03;;;;;;;3.92;0.68;;;16.90;86.40;;;;;;5050269;28;20024;-86
2021/05/22 06:40:29;;;;;;;2.10;0.60;;;17.00;86.80;;;;;;5047643;28;20465;-86
2021/05/22 06:42:54;;;;;;;1.42;0.55;;;17.00;86.10;;;;;;5049265;28;20021;-87
2021/05/22 06:45:22;;;;;;;1.60;0.70;;;17.10;85.00;;;;;;5049351;28;20027;-86
2021/05/22 06:47:48;;;;;;;1.10;0.43;;;17.10;85.80;;;;;;5049634;28;20051;-86
2021/05/22 06:50:15;;;;;;;0.77;0.30;;;17.20;84.30;;;;;;5047630;28;20025;-87
2021/05/22 06:52:40;;;;;;;28.92;1.35;;;17.20;83.80;;;;;;5047767;28;20104;-87
2021/05/22 06:55:07;;;;;;;1.00;0.45;;;17.20;84.30;;;;;;5047733;28;20125;-88
2021/05/22 06:57:33;;;;;;;2.47;0.73;;;17.30;84.70;;;;;;5047617;28;20127;-87
2021/05/22 06:59:59;;;;;;;0.95;0.40;;;17.30;83.90;;;;;;5031998;28;20039;-86
2021/05/22 07:02:25;;;;;;;2.13;0.40;;;17.40;83.60;;;;;;5049515;28;20158;-87
2021/05/22 07:04:50;;;;;;;1.25;0.47;;;17.50;82.60;;;;;;5047674;28;20075;-87
2021/05/22 07:07:17;;;;;;;1.27;0.45;;;17.60;81.70;;;;;;5044247;28;20033;-86
2021/05/22 07:09:43;;;;;;;2.10;0.47;;;17.80;82.00;;;;;;5048376;28;20021;-86
2021/05/22 07:12:10;;;;;;;0.80;0.40;;;17.90;83.00;;;;;;5047355;28;20043;-86
2021/05/22 07:14:36;;;;;;;1.33;0.40;;;18.10;81.30;;;;;;5046731;28;20135;-86
2021/05/22 07:17:02;;;;;;;1.70;0.30;;;18.10;79.90;;;;;;5041233;28;20091;-86
2021/05/22 07:19:28;;;;;;;1.85;0.50;;;18.20;79.40;;;;;;5028152;28;20025;-84
2021/05/22 07:21:55;;;;;;;1.92;0.57;;;18.40;80.50;;;;;;5045933;28;20052;-86
2021/05/22 07:24:21;;;;;;;1.65;0.43;;;18.50;80.70;;;;;;5048294;28;20053;-85
2021/05/22 07:26:48;;;;;;;0.85;0.40;;;18.50;80.40;;;;;;5040690;28;20052;-85
2021/05/22 07:29:14;;;;;;;1.58;0.52;;;18.60;80.90;;;;;;5040882;28;20055;-87
2021/05/22 07:31:42;;;;;;;1.67;0.50;;;18.60;79.20;;;;;;5048705;28;20100;-86
2021/05/22 07:34:09;;;;;;;2.17;0.40;;;18.70;80.10;;;;;;5043359;28;20036;-86
2021/05/22 07:36:35;;;;;;;2.00;0.60;;;18.60;81.60;;;;;;5051097;28;20049;-86
2021/05/22 07:39:02;;;;;;;2.15;0.57;;;18.60;80.10;;;;;;5049286;28;20024;-86
2021/05/22 07:41:28;;;;;;;3.17;0.60;;;18.40;79.60;;;;;;5041604;28;20032;-86
2021/05/22 07:43:53;;;;;;;1.50;0.40;;;18.40;80.10;;;;;;5049649;28;20585;-87
2021/05/22 07:46:19;;;;;;;1.80;0.70;;;18.20;81.40;;;;;;5050627;28;20499;-87
2021/05/22 07:48:45;;;;;;;2.53;0.55;;;18.10;82.80;;;;;;5046464;28;20017;-86
2021/05/22 07:51:10;;;;;;;1.10;0.52;;;18.00;81.70;;;;;;5052664;28;20120;-87
2021/05/22 07:53:36;;;;;;;1.60;0.52;;;18.00;81.80;;;;;;5034168;28;20569;-87
2021/05/22 07:56:02;;;;;;;1.33;0.77;;;17.90;82.80;;;;;;5042018;28;20045;-86
2021/05/22 07:58:27;;;;;;;1.10;0.57;;;18.10;82.70;;;;;;5044531;28;20372;-86
2021/05/22 08:00:53;;;;;;;1.92;0.73;;;18.20;83.60;;;;;;5050343;28;20507;-86
2021/05/22 08:03:19;;;;;;;2.88;0.82;;;18.20;81.60;;;;;;5051579;28;20057;-85
2021/05/22 08:05:44;;;;;;;2.17;0.85;;;18.30;82.20;;;;;;5053816;28;20025;-86
2021/05/22 08:08:10;;;;;;;4.13;1.02;;;18.40;82.10;;;;;;5032747;28;20009;-87
2021/05/22 08:10:36;;;;;;;2.08;0.70;;;18.50;81.70;;;;;;5051174;28;20088;-86
2021/05/22 08:13:02;;;;;;;2.55;0.65;;;18.60;81.60;;;;;;5044698;28;20052;-86
2021/05/22 08:15:27;;;;;;;1.73;0.60;;;18.80;81.00;;;;;;5032145;28;20033;-85
2021/05/22 08:17:53;;;;;;;1.65;0.40;;;18.90;80.30;;;;;;5053246;28;20102;-86
2021/05/22 08:20:19;;;;;;;2.17;0.40;;;19.00;77.40;;;;;;5030736;28;20028;-86
2021/05/22 08:22:46;;;;;;;1.63;0.50;;;18.90;77.70;;;;;;5043105;28;20040;-85
2021/05/22 08:25:12;;;;;;;1.45;0.60;;;18.80;77.80;;;;;;5035063;28;20049;-87
2021/05/22 08:27:40;;;;;;;1.92;0.65;;;18.90;78.80;;;;;;5048677;28;20052;-86
2021/05/22 08:30:07;;;;;;;0.98;0.38;;;18.80;79.10;;;;;;5035587;28;20116;-86
2021/05/22 08:32:32;;;;;;;1.00;0.40;;;18.80;78.40;;;;;;5033810;28;20493;-86
2021/05/22 08:34:58;;;;;;;2.50;0.80;;;18.70;78.10;;;;;;5045139;28;20048;-86
2021/05/22 08:37:24;;;;;;;10.95;1.92;;;18.70;77.60;;;;;;5042133;28;20041;-87
2021/05/22 08:39:52;;;;;;;2.33;0.30;;;18.60;79.20;;;;;;5030424;28;21603;-86
2021/05/22 08:42:26;;;;;;;0.88;0.40;;;18.60;79.00;;;;;;5048449;28;20033;-86
2021/05/22 08:44:53;;;;;;;1.75;0.60;;;18.50;78.60;;;;;;5033886;28;20030;-87
2021/05/22 08:47:20;;;;;;;2.35;0.47;;;18.40;80.50;;;;;;5042485;28;20037;-87
2021/05/22 08:49:46;;;;;;;0.90;0.50;;;18.40;81.70;;;;;;5035878;28;20047;-86
2021/05/22 08:52:18;;;;;;;2.28;0.52;;;18.30;83.90;;;;;;5040924;28;20208;-86
2021/05/22 08:54:45;;;;;;;2.00;0.40;;;18.20;83.90;;;;;;5043011;28;20435;-86
2021/05/22 08:57:11;;;;;;;0.98;0.32;;;18.30;85.20;;;;;;5018165;28;20120;-88
2021/05/22 08:59:41;;;;;;;1.45;0.60;;;18.20;86.00;;;;;;5039552;28;20033;-87
2021/05/22 09:02:07;;;;;;;1.75;0.47;;;18.20;88.00;;;;;;5024602;28;20116;-87
2021/05/22 09:04:52;;;;;;;2.90;0.65;;;18.10;87.30;;;;;;5046242;28;20174;-88
2021/05/22 09:07:22;;;;;;;1.77;0.60;;;18.00;88.70;;;;;;5024917;28;20112;-86
2021/05/22 09:09:48;;;;;;;1.00;0.50;;;17.80;89.90;;;;;;5046884;28;20025;-85
2021/05/22 09:12:13;;;;;;;1.42;0.43;;;17.70;89.30;;;;;;5026434;28;20031;-85
2021/05/22 09:14:48;;;;;;;3.45;0.50;;;17.60;90.20;;;;;;5048383;28;20032;-87
2021/05/22 09:17:14;;;;;;;3.80;0.70;;;17.50;90.60;;;;;;5035120;28;20099;-88
2021/05/22 09:19:41;;;;;;;2.78;0.60;;;17.40;91.00;;;;;;5025472;28;20029;-87
2021/05/22 09:22:17;;;;;;;1.70;0.40;;;17.50;91.50;;;;;;5040039;28;20033;-88
2021/05/22 09:24:59;;;;;;;3.28;0.80;;;17.40;91.60;;;;;;5038740;28;20055;-88
2021/05/22 09:27:34;;;;;;;2.75;0.93;;;17.30;92.60;;;;;;5040780;28;20124;-87
2021/05/22 09:30:11;;;;;;;2.97;0.82;;;17.20;92.10;;;;;;5035827;28;20490;-87
2021/05/22 09:32:37;;;;;;;1.48;0.52;;;17.10;92.40;;;;;;5039005;28;20033;-87
2021/05/22 09:35:05;;;;;;;1.67;0.60;;;17.00;92.40;;;;;;5037140;28;20084;-87
2021/05/22 09:37:38;;;;;;;1.63;0.55;;;16.90;92.70;;;;;;5045067;28;20113;-87
2021/05/22 09:40:04;;;;;;;1.90;0.70;;;16.80;92.20;;;;;;5044715;28;20029;-87
2021/05/22 09:42:31;;;;;;;1.92;0.73;;;16.60;93.30;;;;;;5035509;28;20045;-86
2021/05/22 09:44:58;;;;;;;2.33;0.70;;;16.60;93.30;;;;;;5035836;28;20030;-86
2021/05/22 09:47:24;;;;;;;1.05;0.50;;;16.50;93.50;;;;;;5040887;28;20032;-86
2021/05/22 09:49:50;;;;;;;1.00;0.40;;;16.40;92.50;;;;;;5039595;28;20025;-86
2021/05/22 09:52:17;;;;;;;1.75;0.63;;;16.30;92.80;;;;;;5041601;28;20040;-86
2021/05/22 09:54:53;;;;;;;5.30;0.98;;;16.10;92.60;;;;;;5021861;28;20361;-87
2021/05/22 09:57:21;;;;;;;2.10;0.60;;;16.00;93.00;;;;;;5032972;28;20075;-85
2021/05/22 10:00:08;;;;;;;3.75;0.80;;;15.90;93.20;;;;;;5042421;28;20115;-85
2021/05/22 10:02:40;;;;;;;3.03;0.90;;;15.80;92.30;;;;;;5043027;28;20388;-86
2021/05/22 10:05:13;;;;;;;0.73;0.50;;;15.70;93.40;;;;;;5037889;28;20497;-87
2021/05/22 10:07:39;;;;;;;1.95;0.75;;;15.60;93.30;;;;;;5037118;28;20035;-86
2021/05/22 10:10:05;;;;;;;2.03;0.70;;;15.60;93.80;;;;;;5035242;28;20116;-85
2021/05/22 10:12:31;;;;;;;1.52;0.63;;;15.60;94.30;;;;;;5039723;28;20485;-85
2021/05/22 10:14:58;;;;;;;2.65;1.00;;;15.50;93.90;;;;;;5032068;28;20099;-86
2021/05/22 10:17:24;;;;;;;2.78;1.13;;;15.50;94.50;;;;;;5039141;28;20025;-85
2021/05/22 10:19:50;;;;;;;1.98;1.05;;;15.50;94.30;;;;;;5035703;28;20053;-87
2021/05/22 10:22:19;;;;;;;2.92;1.20;;;15.50;94.90;;;;;;5036325;28;20041;-85
2021/05/22 10:24:46;;;;;;;4.60;1.15;;;15.40;94.90;;;;;;5036417;28;20025;-86
2021/05/22 10:27:13;;;;;;;2.10;0.88;;;15.40;94.80;;;;;;5044355;28;20056;-86
2021/05/22 10:29:38;;;;;;;3.33;0.95;;;15.30;94.80;;;;;;5037908;28;20036;-87
2021/05/22 10:32:04;;;;;;;3.22;1.25;;;15.20;95.10;;;;;;5040860;28;20029;-86
2021/05/22 10:34:36;;;;;;;3.72;1.27;;;15.20;95.20;;;;;;5036888;28;20029;-86
2021/05/22 10:37:02;;;;;;;3.97;1.85;;;15.10;95.30;;;;;;5039690;28;20120;-85
2021/05/22 10:39:49;;;;;;;4.85;1.80;;;15.00;95.70;;;;;;5037433;28;20028;-86
2021/05/22 10:42:21;;;;;;;3.00;1.50;;;15.00;95.60;;;;;;5035105;28;20476;-86
2021/05/22 10:44:47;;;;;;;3.13;1.40;;;15.00;96.00;;;;;;5038314;28;20055;-86
2021/05/22 10:47:16;;;;;;;6.15;1.90;;;14.90;95.90;;;;;;5037684;28;20473;-86
2021/05/22 10:49:58;;;;;;;3.40;1.90;;;14.90;95.60;;;;;;5038713;28;20174;-86
2021/05/22 10:52:24;;;;;;;5.85;2.05;;;14.90;95.60;;;;;;5038615;28;20040;-87
2021/05/22 10:55:09;;;;;;;4.10;1.95;;;14.80;96.10;;;;;;5024094;28;20021;-86
2021/05/22 10:57:47;;;;;;;4.78;1.83;;;14.80;96.50;;;;;;5045445;28;20044;-86
2021/05/22 11:00:17;;;;;;;3.42;1.90;;;14.80;96.30;;;;;;5033641;28;20947;-85
2021/05/22 11:02:45;;;;;;;4.35;2.03;;;14.90;96.50;;;;;;5034911;28;20052;-86
2021/05/22 11:05:24;;;;;;;8.38;2.10;;;15.00;96.40;;;;;;5036741;28;20025;-86
2021/05/22 11:08:12;;;;;;;3.70;1.73;;;15.10;96.70;;;;;;5025523;28;20084;-86
2021/05/22 11:10:52;;;;;;;3.25;1.60;;;15.10;96.20;;;;;;5024818;28;20361;-85
2021/05/22 11:13:20;;;;;;;3.47;2.30;;;15.20;95.70;;;;;;5023192;28;20044;-86
2021/05/22 11:15:55;;;;;;;4.13;2.03;;;15.20;96.20;;;;;;5040240;28;20464;-85
2021/05/22 11:18:23;;;;;;;4.95;2.30;;;15.30;96.40;;;;;;5034854;28;20048;-86
2021/05/22 11:21:08;;;;;;;4.35;1.88;;;15.30;96.10;;;;;;5043149;28;20449;-85
2021/05/22 11:23:58;;;;;;;4.00;2.20;;;15.40;95.90;;;;;;5043160;28;20025;-86
2021/05/22 11:26:42;;;;;;;5.50;2.00;;;15.40;95.70;;;;;;5046411;28;20017;-85
2021/05/22 11:29:08;;;;;;;3.63;1.65;;;15.50;96.10;;;;;;5025943;28;20108;-85
2021/05/22 11:31:34;;;;;;;6.07;2.20;;;15.60;95.90;;;;;;5041751;28;20458;-86
2021/05/22 11:34:22;;;;;;;3.90;1.63;;;15.60;94.80;;;;;;5027544;28;20115;-86
2021/05/22 11:37:09;;;;;;;4.63;2.28;;;15.60;95.20;;;;;;5041975;28;20049;-86
2021/05/22 11:39:38;;;;;;;5.47;2.10;;;15.70;95.20;;;;;;5042522;28;23271;-86
2021/05/22 11:42:33;;;;;;;3.75;1.90;;;15.80;95.20;;;;;;5046507;28;20567;-85
2021/05/22 11:45:00;;;;;;;3.47;1.60;;;15.80;95.10;;;;;;5045999;28;20029;-85
2021/05/22 11:47:36;;;;;;;3.90;1.60;;;15.80;95.20;;;;;;5045960;28;20099;-85
2021/05/22 11:50:04;;;;;;;3.10;1.65;;;15.80;95.10;;;;;;5021513;28;20125;-85
2021/05/22 11:52:35;;;;;;;4.47;1.80;;;15.80;95.30;;;;;;5044824;28;20092;-86
2021/05/22 11:55:16;;;;;;;3.72;1.48;;;15.80;95.60;;;;;;5043691;28;20489;-86
2021/05/22 11:57:42;;;;;;;5.85;1.70;;;15.70;95.40;;;;;;5035370;28;20033;-86
2021/05/22 12:00:08;;;;;;;3.05;1.52;;;15.70;95.30;;;;;;5041672;28;20052;-86
2021/05/22 12:02:43;;;;;;;3.92;1.98;;;15.70;95.00;;;;;;5040425;28;20043;-85
2021/05/22 12:05:09;;;;;;;2.40;1.70;;;15.60;95.30;;;;;;5041838;28;20412;-85
2021/05/22 12:07:49;;;;;;;4.72;1.70;;;15.60;96.10;;;;;;5023457;28;20032;-85
2021/05/22 12:10:15;;;;;;;2.65;1.48;;;15.60;95.50;;;;;;5025665;28;20049;-87
2021/05/22 12:12:41;;;;;;;2.33;1.70;;;15.50;95.80;;;;;;5042676;28;20428;-86
2021/05/22 12:15:20;;;;;;;4.28;1.67;;;15.50;95.90;;;;;;5044399;28;20033;-87
2021/05/22 12:17:47;;;;;;;7.80;2.17;;;15.50;96.10;;;;;;5027317;28;20440;-86
2021/05/22 12:20:13;;;;;;;4.50;2.38;;;15.50;96.60;;;;;;5044787;28;20032;-85
2021/05/22 12:22:39;;;;;;;6.07;2.40;;;15.50;96.40;;;;;;5015107;28;20041;-86
2021/05/22 12:25:05;;;;;;;5.47;2.50;;;15.40;96.00;;;;;;5041642;28;20036;-86
2021/05/22 12:27:31;;;;;;;4.70;2.20;;;15.40;96.20;;;;;;5035520;28;20060;-86
2021/05/22 12:29:57;;;;;;;4.40;2.50;;;15.40;96.40;;;;;;5038194;28;20088;-86
2021/05/22 12:32:23;;;;;;;4.43;2.40;;;15.40;96.70;;;;;;5045791;28;20826;-85
2021/05/22 12:34:57;;;;;;;6.55;2.75;;;15.40;96.50;;;;;;5020993;28;20061;-86
2021/05/22 12:37:23;;;;;;;5.43;2.90;;;15.40;96.70;;;;;;5035123;28;20068;-86
2021/05/22 12:39:57;;;;;;;3.88;2.42;;;15.40;96.80;;;;;;5041741;28;20512;-85
2021/05/22 12:42:25;;;;;;;6.35;2.65;;;15.30;96.50;;;;;;5043510;28;20036;-87
2021/05/22 12:44:54;;;;;;;3.95;2.80;;;15.30;96.80;;;;;;5025115;28;20027;-85
2021/05/22 12:47:24;;;;;;;4.57;2.72;;;15.30;96.90;;;;;;5035449;28;20033;-85
2021/05/22 12:50:05;;;;;;;4.13;3.05;;;15.30;96.90;;;;;;5038270;28;20075;-84
2021/05/22 12:52:46;;;;;;;5.85;2.35;;;15.20;96.60;;;;;;5038412;28;20034;-85